createdAt,value
2019-03-24T00:00:45.414Z,19
2019-03-24T00:10:44.853Z,20.3
2019-03-24T00:20:55.620Z,15.8
2019-03-24T00:30:55.114Z,15.9
2019-03-24T00:40:57.280Z,15.2
2019-03-24T00:51:07.790Z,13.7
2019-03-24T01:01:08.534Z,15.8
2019-03-24T01:11:07.942Z,12.4
2019-03-24T01:21:18.764Z,13.5
2019-03-24T01:31:18.176Z,14.5
2019-03-24T01:41:16.213Z,46.7
2019-03-24T01:51:15.678Z,13.1
2019-03-24T02:01:14.034Z,26.9
2019-03-24T02:11:13.567Z,19.9
2019-03-24T02:21:13.099Z,17.1
2019-03-24T02:31:12.731Z,13
2019-03-24T02:41:12.509Z,13.6
2019-03-24T02:51:12.322Z,13.6
2019-03-24T03:01:12.110Z,12.1
2019-03-24T03:11:11.789Z,12.9
2019-03-24T03:21:11.496Z,14
2019-03-24T03:31:11.231Z,11.6
2019-03-24T03:41:11.286Z,13.4
2019-03-24T03:51:24.072Z,13.3
2019-03-24T04:01:23.758Z,14.1
2019-03-24T04:11:22.158Z,34.8
2019-03-24T04:21:38.459Z,13.1
2019-03-24T04:31:38.245Z,16.5
2019-03-24T04:41:37.907Z,12.6
2019-03-24T04:51:47.492Z,13.8
2019-03-24T05:01:47.093Z,12
2019-03-24T05:11:45.112Z,37.6
2019-03-24T05:21:44.528Z,11.4
2019-03-24T05:31:43.957Z,14.4
2019-03-24T05:41:43.403Z,12
2019-03-24T05:51:42.958Z,11.1
2019-03-24T06:01:41.087Z,33
2019-03-24T06:11:40.543Z,10.5
2019-03-24T06:21:40.053Z,11.3
2019-03-24T06:31:39.595Z,12.1
2019-03-24T06:41:39.043Z,10.2
2019-03-24T06:51:38.506Z,9.3
2019-03-24T07:01:37.936Z,8.9
2019-03-24T07:11:44.938Z,10.8
2019-03-24T07:21:47.492Z,10.3
2019-03-24T07:31:47.041Z,7.8
2019-03-24T07:41:48.812Z,8.3
2019-03-24T07:51:50.319Z,11.4
2019-03-24T08:01:49.762Z,6.5
2019-03-24T08:11:49.308Z,7.2
2019-03-24T08:22:04.005Z,7.3
2019-03-24T08:32:03.531Z,8.2
2019-03-24T08:42:03.184Z,14
2019-03-24T08:52:12.204Z,13.5
2019-03-24T09:02:17.017Z,12.6
2019-03-24T09:12:21.234Z,17.6
2019-03-24T09:22:23.938Z,20.4
2019-03-24T09:32:23.580Z,14.7
2019-03-24T09:42:23.618Z,15.1
2019-03-24T09:52:34.274Z,16.2
2019-03-24T10:02:36.802Z,18.1
2019-03-24T10:12:39.037Z,21.7
2019-03-24T10:22:45.249Z,20.2
2019-03-24T10:32:44.968Z,21
2019-03-24T10:42:44.504Z,22.5
2019-03-24T10:52:56.065Z,26
2019-03-24T11:02:55.681Z,24.8
2019-03-24T11:12:56.200Z,21.6
2019-03-24T11:23:06.817Z,26.5
2019-03-24T11:33:06.275Z,26.8
2019-03-24T11:43:07.618Z,28
2019-03-24T11:53:20.058Z,27
2019-03-24T12:03:25.641Z,23.5
2019-03-24T12:13:26.093Z,23.4
2019-03-24T12:23:28.089Z,23.2
2019-03-24T12:33:27.733Z,23.9
2019-03-24T12:43:29.101Z,24.9
2019-03-24T12:53:43.611Z,27.9
2019-03-24T13:03:43.314Z,30.7
2019-03-24T13:13:43.147Z,25.3
2019-03-24T13:24:09.426Z,27.8
2019-03-24T13:34:09.216Z,30.1
2019-03-24T13:44:08.850Z,30.3
2019-03-24T13:54:08.608Z,27.5
2019-03-24T14:04:08.087Z,26.5
2019-03-24T14:14:07.656Z,26.4
2019-03-24T14:24:14.889Z,17.3
2019-03-24T14:34:14.658Z,18.2
2019-03-24T14:44:14.596Z,13
2019-03-24T14:54:25.742Z,13.3
2019-03-24T15:04:25.245Z,13.1
2019-03-24T15:14:27.465Z,12.5
2019-03-24T15:24:36.820Z,14.7
2019-03-24T15:34:36.368Z,14.5
2019-03-24T15:44:39.591Z,18.3
2019-03-24T15:54:48.099Z,16.7
2019-03-24T16:04:47.546Z,17.6
2019-03-24T16:14:47.367Z,15.2
2019-03-24T16:25:01.685Z,15.3
2019-03-24T16:35:04.577Z,13.2
2019-03-24T16:45:04.803Z,15.5
2019-03-24T16:55:12.431Z,20.3
2019-03-24T17:05:15.313Z,22
2019-03-24T17:15:15.308Z,18.3
2019-03-24T17:25:21.178Z,19
2019-03-24T17:35:21.145Z,15.4
2019-03-24T17:45:21.581Z,18.2
2019-03-24T17:55:31.809Z,18.7
2019-03-24T18:05:44.742Z,16.6
2019-03-24T18:15:46.232Z,15.6
2019-03-24T18:25:47.406Z,18.9
2019-03-24T18:35:48.150Z,19.8
2019-03-24T18:45:48.076Z,38.5
2019-03-24T18:55:53.827Z,20.8
2019-03-24T19:05:56.767Z,16.6
2019-03-24T19:15:59.223Z,27.6
2019-03-24T19:26:05.186Z,32
2019-03-24T19:36:06.462Z,43.5
2019-03-24T19:46:06.202Z,49.3
2019-03-24T19:56:16.026Z,55.2
2019-03-24T20:06:17.887Z,59.9
2019-03-24T20:16:22.339Z,55.7
2019-03-24T20:26:27.877Z,55.1
2019-03-24T20:36:27.417Z,54.9
2019-03-24T20:46:26.909Z,60.3
2019-03-24T20:56:49.237Z,61.2
2019-03-24T21:06:54.079Z,58.5
2019-03-24T21:16:56.590Z,52.8
2019-03-24T21:27:00.853Z,57.9
2019-03-24T21:37:00.208Z,58.4
2019-03-24T21:46:59.826Z,57
2019-03-24T21:57:11.754Z,49.2
2019-03-24T22:07:11.742Z,54.5
2019-03-24T22:17:11.267Z,56.4
2019-03-24T22:27:23.492Z,53.5
2019-03-24T22:37:24.186Z,52.6
2019-03-24T22:47:23.939Z,60
2019-03-24T22:57:38.048Z,57
2019-03-24T23:07:36.703Z,58.1
2019-03-24T23:17:39.646Z,56.6
2019-03-24T23:27:46.878Z,57.3
2019-03-24T23:37:46.677Z,56.8
2019-03-24T23:47:46.169Z,58.7
2019-03-24T23:57:58.208Z,54.6
